Time;durP1;ratioP1;P1;durP2;ratioP2;P2;SDS_P1;SDS_P2;PMS_P1;PMS_P2;Temp;Humidity;BMP_temperature;BMP_pressure;BME280_temperature;BME280_humidity;BME280_pressure;Samples;Min_cycle;Max_cycle;Signal;HPM_P1;HPM_P2
2022/09/08 00:00:44;;;;;;;4.53;1.60;;;16.60;99.90;;;;;;5085863;28;20203;-79
2022/09/08 00:03:11;;;;;;;5.70;1.80;;;16.60;99.90;;;;;;5084498;28;20533;-80
2022/09/08 00:05:52;;;;;;;3.37;1.43;;;16.90;99.90;;;;;;5085914;28;20180;-79
2022/09/08 00:08:20;;;;;;;4.43;1.60;;;16.50;99.90;;;;;;5084442;28;20170;-80
2022/09/08 00:10:47;;;;;;;5.77;1.10;;;17.10;99.90;;;;;;5083966;28;20217;-80
2022/09/08 00:13:13;;;;;;;3.10;1.60;;;16.60;99.90;;;;;;5085087;28;20191;-80
2022/09/08 00:15:39;;;;;;;4.33;1.60;;;16.60;99.90;;;;;;5084738;28;20175;-79
2022/09/08 00:18:07;;;;;;;4.57;1.47;;;16.60;99.90;;;;;;5085309;28;20236;-80
2022/09/08 00:20:33;;;;;;;1.83;1.40;;;16.80;99.90;;;;;;5085900;28;20266;-80
2022/09/08 00:22:58;;;;;;;4.90;2.43;;;17.20;99.90;;;;;;5086135;28;20186;-80
2022/09/08 00:25:24;;;;;;;6.93;1.63;;;16.60;99.90;;;;;;5090824;28;20236;-79
2022/09/08 00:27:50;;;;;;;7.93;1.43;;;17.40;99.90;;;;;;5091818;28;20175;-79
2022/09/08 00:30:16;;;;;;;4.93;1.50;;;16.60;99.90;;;;;;5090956;28;20210;-79
2022/09/08 00:32:41;;;;;;;5.13;1.70;;;17.00;99.90;;;;;;5091015;28;20266;-79
2022/09/08 00:35:14;;;;;;;3.67;1.40;;;17.00;99.90;;;;;;5090394;28;20175;-79
2022/09/08 00:37:42;;;;;;;1.97;1.37;;;16.60;99.90;;;;;;5085043;28;20182;-80
2022/09/08 00:40:09;;;;;;;5.37;1.83;;;16.60;99.90;;;;;;5085613;28;20244;-79
2022/09/08 00:42:35;;;;;;;2.87;1.70;;;16.50;99.90;;;;;;5084610;28;20175;-80
2022/09/08 00:45:01;;;;;;;2.70;1.80;;;16.60;99.90;;;;;;5083636;28;20643;-80
2022/09/08 00:47:34;;;;;;;2.53;2.10;;;16.80;99.90;;;;;;5083894;28;20190;-80
2022/09/08 00:50:17;;;;;;;3.97;1.90;;;16.60;99.90;;;;;;5085548;28;20206;-80
2022/09/08 00:53:00;;;;;;;5.00;2.13;;;15.90;99.90;;;;;;5084028;28;20199;-79
2022/09/08 00:55:31;;;;;;;6.17;2.10;;;16.60;99.90;;;;;;5084943;28;20262;-80
2022/09/08 00:57:57;;;;;;;5.17;1.83;;;16.50;99.90;;;;;;5084994;28;20218;-80
2022/09/08 01:00:22;;;;;;;3.23;1.73;;;16.50;99.90;;;;;;5081912;28;20199;-80
2022/09/08 01:02:49;;;;;;;5.73;2.10;;;17.20;99.90;;;;;;5084677;28;20203;-80
2022/09/08 01:05:18;;;;;;;5.10;2.47;;;17.20;99.90;;;;;;5084770;28;20182;-79
2022/09/08 01:14:00;;;;;;;3.93;1.83;;;16.70;99.90;;;;;;5084263;28;20643;-81
2022/09/08 01:16:26;;;;;;;3.10;1.77;;;17.20;99.90;;;;;;5083691;28;20261;-79
2022/09/08 01:18:54;;;;;;;5.33;2.27;;;16.70;99.90;;;;;;5082360;28;20167;-79
2022/09/08 01:21:40;;;;;;;3.60;2.20;;;16.90;99.90;;;;;;5084481;28;20193;-81
2022/09/08 01:24:38;;;;;;;4.40;1.93;;;16.70;99.90;;;;;;5083690;28;20205;-81
2022/09/08 01:27:23;;;;;;;2.60;2.20;;;16.70;99.90;;;;;;5083281;28;20160;-81
2022/09/08 01:29:54;;;;;;;5.23;2.43;;;16.70;99.90;;;;;;5082374;28;20206;-80
2022/09/08 01:32:20;;;;;;;2.67;1.80;;;17.10;99.90;;;;;;5082212;28;20191;-80
2022/09/08 01:34:46;;;;;;;6.80;1.80;;;16.70;99.90;;;;;;5083255;28;20182;-80
2022/09/08 01:37:12;;;;;;;2.83;2.10;;;16.70;99.90;;;;;;5084686;28;20167;-81
2022/09/08 01:39:38;;;;;;;4.87;2.20;;;16.80;99.90;;;;;;5088359;28;20214;-79
2022/09/08 01:42:05;;;;;;;4.50;2.50;;;15.70;99.90;;;;;;5089391;28;20656;-80
2022/09/08 01:44:32;;;;;;;2.93;2.00;;;16.80;99.90;;;;;;5089285;28;20565;-80
2022/09/08 01:46:58;;;;;;;1.97;1.70;;;16.90;99.90;;;;;;5090647;28;20169;-80
2022/09/08 01:49:24;;;;;;;3.53;1.83;;;16.40;99.90;;;;;;5089427;28;20203;-80
2022/09/08 01:51:50;;;;;;;2.53;1.63;;;17.20;99.90;;;;;;5091028;28;20198;-80
2022/09/08 01:54:16;;;;;;;3.13;2.40;;;17.30;99.90;;;;;;5091025;28;20183;-80
2022/09/08 01:56:41;;;;;;;3.90;1.97;;;17.00;99.90;;;;;;5090560;28;20186;-81
2022/09/08 01:59:07;;;;;;;4.63;2.10;;;16.90;99.90;;;;;;5091951;28;20564;-81
2022/09/08 02:01:33;;;;;;;2.30;1.57;;;17.00;99.90;;;;;;5091106;28;20171;-79
2022/09/08 02:03:58;;;;;;;3.77;2.17;;;17.40;99.90;;;;;;5091619;28;20163;-80
2022/09/08 02:06:24;;;;;;;6.30;2.03;;;17.40;99.90;;;;;;5090744;28;20171;-79
2022/09/08 02:08:56;;;;;;;5.17;2.33;;;17.00;99.90;;;;;;5089540;28;20547;-79
2022/09/08 02:11:22;;;;;;;2.33;1.80;;;17.00;99.90;;;;;;5082242;28;20175;-79
2022/09/08 02:13:48;;;;;;;3.37;2.03;;;17.20;99.90;;;;;;5082063;28;20179;-79
2022/09/08 02:16:14;;;;;;;3.77;1.90;;;17.40;99.90;;;;;;5082523;28;20269;-80
2022/09/08 02:18:40;;;;;;;5.27;2.20;;;17.40;99.90;;;;;;5081816;28;20266;-80
2022/09/08 02:21:07;;;;;;;2.83;2.00;;;17.20;99.90;;;;;;5081842;28;20556;-80
2022/09/08 02:23:34;;;;;;;3.37;2.10;;;17.10;99.90;;;;;;5081003;28;20555;-80
2022/09/08 02:26:00;;;;;;;4.57;1.93;;;17.10;99.90;;;;;;5081951;28;20680;-79
2022/09/08 02:28:25;;;;;;;3.43;1.70;;;17.10;99.90;;;;;;5080381;28;20191;-79
2022/09/08 02:30:56;;;;;;;2.97;1.63;;;17.10;99.90;;;;;;5080268;28;20217;-79
2022/09/08 02:33:21;;;;;;;4.90;1.60;;;17.10;99.90;;;;;;5082175;28;20243;-80
2022/09/08 02:35:48;;;;;;;4.17;1.90;;;17.10;99.90;;;;;;5081447;28;20202;-80
2022/09/08 02:38:14;;;;;;;3.40;1.93;;;17.40;99.90;;;;;;5081065;28;20190;-79
2022/09/08 02:40:41;;;;;;;3.20;1.80;;;17.20;99.90;;;;;;5080999;28;20209;-79
2022/09/08 02:43:08;;;;;;;2.13;1.60;;;17.20;99.90;;;;;;5080412;28;20190;-80
2022/09/08 02:45:40;;;;;;;2.70;1.80;;;17.30;99.90;;;;;;5081794;28;20183;-79
2022/09/08 02:48:06;;;;;;;3.13;1.97;;;18.30;99.90;;;;;;5080055;28;20212;-80
2022/09/08 02:50:31;;;;;;;3.77;2.20;;;17.20;99.90;;;;;;5079606;28;20198;-80
2022/09/08 02:52:57;;;;;;;6.40;2.20;;;18.10;99.90;;;;;;5079790;28;20213;-80
2022/09/08 02:55:23;;;;;;;2.33;1.90;;;17.70;99.90;;;;;;5080112;28;20185;-80
2022/09/08 02:57:49;;;;;;;2.77;2.20;;;17.20;99.90;;;;;;5080946;28;20163;-80
2022/09/08 03:00:16;;;;;;;2.57;1.60;;;17.30;99.90;;;;;;5080278;28;20666;-80
2022/09/08 03:02:42;;;;;;;2.80;2.23;;;17.30;99.90;;;;;;5079250;28;20181;-79
2022/09/08 03:05:08;;;;;;;6.13;2.30;;;17.50;99.90;;;;;;5079913;28;20179;-79
2022/09/08 03:07:34;;;;;;;6.63;2.30;;;17.40;99.90;;;;;;5080671;28;20547;-79
2022/09/08 03:09:59;;;;;;;3.70;2.47;;;17.40;99.90;;;;;;5080894;28;20191;-80
2022/09/08 03:12:26;;;;;;;5.07;2.23;;;18.30;99.90;;;;;;5079391;28;20226;-80
2022/09/08 03:14:53;;;;;;;5.27;2.30;;;18.10;99.90;;;;;;5079835;28;20632;-80
2022/09/08 03:17:20;;;;;;;3.30;2.40;;;17.90;99.90;;;;;;5086336;28;20190;-80
2022/09/08 03:19:46;;;;;;;3.90;2.03;;;17.60;99.90;;;;;;5089501;28;20195;-80
2022/09/08 03:22:12;;;;;;;6.77;2.50;;;18.00;99.90;;;;;;5092053;28;20179;-80
2022/09/08 03:24:38;;;;;;;6.40;2.60;;;17.60;99.90;;;;;;5100948;28;20165;-80
2022/09/08 03:27:04;;;;;;;6.47;2.63;;;18.80;99.90;;;;;;5101857;28;20253;-80
2022/09/08 03:29:31;;;;;;;7.23;2.60;;;17.70;99.90;;;;;;5084864;28;20332;-80
2022/09/08 03:31:57;;;;;;;5.50;2.40;;;18.10;99.90;;;;;;5084283;28;20202;-80
2022/09/08 03:34:23;;;;;;;6.10;2.37;;;16.80;99.90;;;;;;5084638;28;20220;-80
2022/09/08 03:36:48;;;;;;;6.00;2.33;;;17.30;99.90;;;;;;5084824;28;20171;-80
2022/09/08 03:39:14;;;;;;;4.83;2.30;;;18.40;99.90;;;;;;5082651;28;20206;-81
2022/09/08 03:41:39;;;;;;;5.73;2.13;;;17.90;99.90;;;;;;5083196;28;20181;-80
2022/09/08 03:44:05;;;;;;;2.73;2.00;;;17.80;99.90;;;;;;5084110;28;20175;-80
2022/09/08 03:46:31;;;;;;;6.93;2.37;;;19.20;99.90;;;;;;5085135;28;20167;-81
2022/09/08 03:48:56;;;;;;;4.37;2.27;;;17.80;99.90;;;;;;5084681;28;20181;-80
2022/09/08 03:51:25;;;;;;;5.47;1.97;;;17.80;99.90;;;;;;5084086;28;20173;-80
2022/09/08 03:54:46;;;;;;;5.80;2.00;;;17.80;99.90;;;;;;5084489;28;20264;-80
2022/09/08 03:56:41;;;;;;;4.73;1.83;;;18.40;99.90;;;;;;5084030;28;20672;-79
2022/09/08 03:59:07;;;;;;;7.20;2.17;;;17.80;99.90;;;;;;5084166;28;20276;-81
2022/09/08 04:01:34;;;;;;;4.57;2.00;;;17.80;99.90;;;;;;5082420;28;20198;-81
2022/09/08 04:03:59;;;;;;;3.40;1.97;;;17.10;99.90;;;;;;5084702;28;20163;-79
2022/09/08 04:06:25;;;;;;;5.67;2.30;;;16.70;99.90;;;;;;5084266;28;20167;-80
2022/09/08 04:08:51;;;;;;;4.60;2.37;;;17.00;99.90;;;;;;5082486;28;20175;-80
2022/09/08 04:11:17;;;;;;;3.97;2.27;;;18.30;99.90;;;;;;5083607;28;20198;-80
2022/09/08 04:13:43;;;;;;;4.33;2.43;;;17.40;99.90;;;;;;5088506;28;20211;-79
2022/09/08 04:16:08;;;;;;;6.73;2.43;;;17.80;99.90;;;;;;5089955;28;20239;-80
2022/09/08 04:18:36;;;;;;;4.87;2.20;;;17.70;99.90;;;;;;5090478;28;20171;-80
2022/09/08 04:21:04;;;;;;;2.73;2.00;;;18.30;99.90;;;;;;5090853;28;20189;-79
2022/09/08 04:23:30;;;;;;;5.00;2.70;;;17.70;99.90;;;;;;5089754;28;20235;-81
2022/09/08 04:26:01;;;;;;;4.77;2.67;;;16.80;99.90;;;;;;5089623;28;20183;-80
2022/09/08 04:28:28;;;;;;;7.43;2.93;;;18.00;99.90;;;;;;5088780;28;20175;-80
2022/09/08 04:30:53;;;;;;;3.40;2.20;;;18.40;99.90;;;;;;5085250;28;20691;-81
2022/09/08 04:33:19;;;;;;;3.37;2.37;;;18.30;99.90;;;;;;5087799;28;20202;-80
2022/09/08 04:35:47;;;;;;;3.27;2.40;;;17.70;99.90;;;;;;5084746;28;20170;-80
2022/09/08 04:38:13;;;;;;;2.87;1.97;;;17.70;99.90;;;;;;5090196;28;20221;-80
2022/09/08 04:40:40;;;;;;;5.87;2.23;;;19.10;99.90;;;;;;5082340;28;20191;-78
2022/09/08 04:43:06;;;;;;;4.23;2.37;;;18.10;99.90;;;;;;5094343;28;20615;-78
2022/09/08 04:45:31;;;;;;;4.70;2.53;;;17.50;99.90;;;;;;5095603;28;20196;-77
2022/09/08 04:47:57;;;;;;;3.13;2.50;;;16.90;99.90;;;;;;5081781;28;20209;-78
2022/09/08 04:50:23;;;;;;;4.17;2.13;;;17.40;99.90;;;;;;5080319;28;20191;-78
2022/09/08 04:52:48;;;;;;;4.80;2.30;;;17.60;99.90;;;;;;5076164;28;20725;-78
2022/09/08 04:55:14;;;;;;;3.07;2.17;;;17.80;99.90;;;;;;5075702;28;20636;-78
2022/09/08 04:57:39;;;;;;;3.83;2.33;;;17.60;99.90;;;;;;5075281;28;20163;-77
2022/09/08 05:00:07;;;;;;;4.47;2.63;;;17.60;99.90;;;;;;5073894;28;20700;-77
2022/09/08 05:02:32;;;;;;;5.87;2.60;;;17.50;99.90;;;;;;5075715;28;20254;-78
2022/09/08 05:04:58;;;;;;;7.47;2.93;;;17.50;99.90;;;;;;5074354;28;20268;-78
2022/09/08 05:07:23;;;;;;;5.63;2.90;;;17.50;99.90;;;;;;5074444;28;20175;-78
2022/09/08 05:09:49;;;;;;;3.17;2.60;;;17.50;99.90;;;;;;5075104;28;20195;-79
2022/09/08 05:12:15;;;;;;;6.30;2.50;;;17.60;99.90;;;;;;5078293;28;20614;-79
2022/09/08 05:14:40;;;;;;;7.00;2.67;;;17.60;99.90;;;;;;5081743;28;20166;-79
2022/09/08 05:17:06;;;;;;;5.47;2.90;;;17.50;99.90;;;;;;5081448;28;20171;-79
2022/09/08 05:19:31;;;;;;;2.50;2.30;;;17.50;99.90;;;;;;5079032;28;20209;-76
2022/09/08 05:21:57;;;;;;;3.93;2.60;;;17.50;99.90;;;;;;5073778;28;20171;-77
2022/09/08 05:24:23;;;;;;;6.17;2.87;;;17.50;99.90;;;;;;5076574;28;20198;-77
2022/09/08 05:26:49;;;;;;;4.63;2.53;;;17.50;99.90;;;;;;5074623;28;20224;-77
2022/09/08 05:29:14;;;;;;;4.63;2.77;;;17.50;99.90;;;;;;5074639;28;20222;-77
2022/09/08 05:31:40;;;;;;;7.53;2.97;;;17.50;99.90;;;;;;5074889;28;20644;-77
2022/09/08 05:34:05;;;;;;;6.80;3.00;;;17.50;99.90;;;;;;5073509;28;20179;-77
2022/09/08 05:36:33;;;;;;;6.93;3.50;;;17.50;99.90;;;;;;5074966;28;20190;-78
2022/09/08 05:39:00;;;;;;;4.10;3.33;;;17.50;99.90;;;;;;5074679;28;20170;-78
2022/09/08 05:41:26;;;;;;;3.83;3.30;;;17.50;99.90;;;;;;5073338;28;20174;-78
2022/09/08 05:43:56;;;;;;;4.97;3.23;;;17.50;99.90;;;;;;5074503;28;20179;-77
2022/09/08 05:46:25;;;;;;;5.03;3.60;;;17.50;99.90;;;;;;5084783;22;20211;-94
2022/09/08 05:49:03;;;;;;;4.90;3.60;;;17.40;99.90;;;;;;5085107;28;20257;-94
2022/09/08 05:51:34;;;;;;;5.13;3.60;;;17.50;99.90;;;;;;5087772;28;20194;-94
2022/09/08 05:54:01;;;;;;;10.33;3.80;;;17.90;99.90;;;;;;5089677;28;20162;-95
2022/09/08 05:56:26;;;;;;;5.57;4.00;;;17.40;99.90;;;;;;5083545;28;20171;-95
2022/09/08 05:58:55;;;;;;;5.77;4.47;;;17.40;99.90;;;;;;5086322;28;20186;-94
2022/09/08 06:01:21;;;;;;;6.27;4.53;;;17.30;99.90;;;;;;5096357;22;20689;-79
2022/09/08 06:03:50;;;;;;;9.27;5.90;;;17.40;99.90;;;;;;5076761;28;20179;-78
2022/09/08 06:06:17;;;;;;;9.27;4.97;;;17.30;99.90;;;;;;5076091;28;20194;-78
2022/09/08 06:08:42;;;;;;;8.00;5.23;;;17.20;99.90;;;;;;5078131;28;20174;-79
2022/09/08 06:11:09;;;;;;;8.90;4.60;;;17.20;99.90;;;;;;5077762;28;20200;-79
2022/09/08 06:13:36;;;;;;;6.13;3.20;;;17.10;99.90;;;;;;5078639;28;20232;-80
2022/09/08 06:16:07;;;;;;;5.83;2.50;;;16.90;99.90;;;;;;5077838;28;20195;-79
2022/09/08 06:18:34;;;;;;;6.10;2.00;;;16.90;99.90;;;;;;5076736;28;20163;-79
2022/09/08 06:21:08;;;;;;;2.97;1.50;;;16.90;99.90;;;;;;5078729;28;20190;-79
2022/09/08 06:23:33;;;;;;;4.47;2.17;;;16.70;99.90;;;;;;5089694;28;20243;-78
2022/09/08 06:26:13;;;;;;;4.63;1.90;;;16.60;99.90;;;;;;5090648;28;20203;-79
2022/09/08 06:28:47;;;;;;;2.50;1.67;;;16.60;99.90;;;;;;5089384;28;20174;-78
2022/09/08 06:31:15;;;;;;;3.33;1.47;;;16.50;99.90;;;;;;5089996;28;20189;-79
2022/09/08 06:33:42;;;;;;;3.10;1.70;;;16.50;99.90;;;;;;5090124;28;20197;-77
2022/09/08 06:36:17;;;;;;;4.43;1.40;;;16.60;99.90;;;;;;5088432;28;20191;-78
2022/09/08 06:38:50;;;;;;;5.70;1.70;;;16.50;99.90;;;;;;5080571;28;20502;-80
2022/09/08 06:41:20;;;;;;;5.40;1.87;;;16.50;99.90;;;;;;5076719;28;20159;-80
2022/09/08 06:43:54;;;;;;;4.43;1.53;;;16.50;99.90;;;;;;5078772;28;20167;-80
2022/09/08 06:46:26;;;;;;;5.23;1.77;;;16.50;99.90;;;;;;5082283;28;20202;-79
2022/09/08 06:48:53;;;;;;;4.20;1.50;;;16.60;99.90;;;;;;5078021;28;20221;-79
2022/09/08 06:51:21;;;;;;;5.07;1.60;;;16.70;99.90;;;;;;5077600;28;20197;-79
2022/09/08 06:54:08;;;;;;;4.47;1.77;;;16.70;99.90;;;;;;5075327;28;20684;-79
2022/09/08 06:57:03;;;;;;;5.93;2.00;;;16.70;99.90;;;;;;5075096;28;20630;-79
2022/09/08 06:59:58;;;;;;;5.87;2.10;;;16.70;99.90;;;;;;5076014;28;20193;-79
2022/09/08 07:02:42;;;;;;;5.80;2.23;;;16.70;99.90;;;;;;5074867;28;20195;-79
2022/09/08 07:05:39;;;;;;;7.43;2.33;;;16.70;99.90;;;;;;5074492;28;20265;-79
2022/09/08 07:08:33;;;;;;;4.20;1.87;;;16.70;99.90;;;;;;5076658;28;20238;-79
2022/09/08 07:11:28;;;;;;;6.20;2.30;;;16.70;99.90;;;;;;5074339;28;20216;-79
2022/09/08 07:14:28;;;;;;;6.87;2.77;;;16.80;99.90;;;;;;5074973;28;20199;-79
2022/09/08 07:17:09;;;;;;;7.77;3.30;;;16.80;99.90;;;;;;5074424;28;20195;-79
2022/09/08 07:19:52;;;;;;;7.30;3.60;;;16.90;99.90;;;;;;5075974;28;20167;-79
2022/09/08 07:22:44;;;;;;;7.27;3.20;;;16.90;99.90;;;;;;5078731;28;20232;-79
2022/09/08 07:25:18;;;;;;;4.33;3.00;;;16.90;99.90;;;;;;5077628;28;20167;-79
2022/09/08 07:27:48;;;;;;;8.93;3.57;;;16.90;99.90;;;;;;5073869;28;20199;-79
2022/09/08 07:30:16;;;;;;;7.20;3.30;;;16.90;99.90;;;;;;5078029;28;20159;-79
2022/09/08 07:32:47;;;;;;;7.60;3.83;;;16.90;99.90;;;;;;5073438;28;20198;-79
2022/09/08 07:35:25;;;;;;;9.27;4.40;;;16.80;99.90;;;;;;5074369;28;20166;-79
2022/09/08 07:37:56;;;;;;;5.57;3.40;;;16.80;99.90;;;;;;5074993;28;20190;-79
2022/09/08 07:40:44;;;;;;;5.00;3.37;;;16.80;99.90;;;;;;5073679;28;20552;-79
2022/09/08 07:43:11;;;;;;;10.23;4.03;;;16.80;99.90;;;;;;5075017;28;20529;-80
2022/09/08 07:45:59;;;;;;;8.97;3.80;;;16.80;99.90;;;;;;5074029;28;20209;-79
2022/09/08 07:48:48;;;;;;;10.13;4.10;;;16.80;99.90;;;;;;5075673;28;20166;-79
2022/09/08 07:51:16;;;;;;;8.43;4.63;;;16.80;99.90;;;;;;5076242;28;20167;-80
2022/09/08 07:54:03;;;;;;;7.67;4.70;;;17.00;99.90;;;;;;5075371;28;20276;-79
2022/09/08 07:56:39;;;;;;;9.67;4.70;;;17.00;99.90;;;;;;5074912;28;20283;-79
2022/09/08 07:59:14;;;;;;;8.80;4.43;;;17.00;99.90;;;;;;5075513;28;20174;-79
2022/09/08 08:02:01;;;;;;;7.67;5.07;;;17.10;99.90;;;;;;5075819;28;20182;-79
2022/09/08 08:04:54;;;;;;;7.67;4.50;;;17.20;99.90;;;;;;5075029;28;20663;-79
2022/09/08 08:07:45;;;;;;;7.93;5.10;;;17.20;99.90;;;;;;5073895;28;20207;-79
2022/09/08 08:10:25;;;;;;;6.87;4.63;;;17.20;99.90;;;;;;5077549;28;20173;-79
2022/09/08 08:13:14;;;;;;;5.53;3.53;;;17.30;99.90;;;;;;5077900;28;20248;-79
2022/09/08 08:15:46;;;;;;;7.37;3.93;;;17.30;99.90;;;;;;5079728;28;20186;-79
2022/09/08 08:18:38;;;;;;;4.87;3.03;;;17.20;99.90;;;;;;5079622;28;20171;-80
2022/09/08 08:21:06;;;;;;;6.40;3.03;;;17.30;99.90;;;;;;5078547;28;20269;-80
2022/09/08 08:23:37;;;;;;;4.83;2.80;;;17.20;99.90;;;;;;5079572;28;20171;-79
2022/09/08 08:26:12;;;;;;;6.27;2.90;;;17.30;99.90;;;;;;5077700;28;20202;-80
2022/09/08 08:28:42;;;;;;;7.00;3.00;;;17.30;99.90;;;;;;5079079;28;20162;-80
2022/09/08 08:31:08;;;;;;;3.23;1.73;;;17.40;99.90;;;;;;5079290;28;20182;-80
2022/09/08 08:33:42;;;;;;;2.90;1.73;;;17.30;99.90;;;;;;5078915;28;20199;-80
2022/09/08 08:36:15;;;;;;;3.27;1.60;;;17.20;99.90;;;;;;5078248;28;20687;-80
2022/09/08 08:38:44;;;;;;;2.43;1.47;;;17.10;99.90;;;;;;5078683;28;20167;-80
2022/09/08 08:41:28;;;;;;;3.67;1.87;;;17.20;99.90;;;;;;5077690;28;20179;-80
2022/09/08 08:44:14;;;;;;;3.37;1.43;;;17.30;99.90;;;;;;5079177;28;20167;-80
2022/09/08 08:47:06;;;;;;;6.57;1.90;;;17.20;99.90;;;;;;5079578;28;20760;-80
2022/09/08 08:50:08;;;;;;;3.20;1.90;;;17.30;99.90;;;;;;5078735;28;20163;-80
2022/09/08 08:53:02;;;;;;;4.70;1.70;;;17.30;99.90;;;;;;5079600;28;20182;-80
2022/09/08 08:55:45;;;;;;;5.00;1.80;;;17.40;99.90;;;;;;5078770;28;20171;-82
2022/09/08 08:58:38;;;;;;;3.40;1.60;;;17.40;99.90;;;;;;5078236;28;20163;-80
2022/09/08 09:01:13;;;;;;;2.73;1.40;;;17.40;99.90;;;;;;5078526;28;20195;-80
2022/09/08 09:04:07;;;;;;;3.77;2.00;;;17.40;99.90;;;;;;5078833;28;20681;-80
2022/09/08 09:06:45;;;;;;;2.63;2.30;;;17.40;99.90;;;;;;5077633;28;20203;-80
2022/09/08 09:09:31;;;;;;;2.33;1.70;;;17.40;99.90;;;;;;5077701;28;20175;-80
2022/09/08 09:12:00;;;;;;;5.10;1.97;;;17.50;99.90;;;;;;5078746;28;20700;-80
2022/09/08 09:14:43;;;;;;;4.40;1.97;;;17.50;99.90;;;;;;5078222;28;20175;-80
2022/09/08 09:17:37;;;;;;;2.07;1.80;;;17.50;99.90;;;;;;5076944;28;20237;-80
2022/09/08 09:20:21;;;;;;;2.73;1.90;;;17.60;99.90;;;;;;5075469;28;20178;-80
2022/09/08 09:23:13;;;;;;;3.23;1.70;;;17.60;99.90;;;;;;5075998;28;20263;-80
2022/09/08 09:25:59;;;;;;;6.10;2.00;;;17.70;99.90;;;;;;5073728;28;20672;-80
2022/09/08 09:29:03;;;;;;;2.67;1.63;;;17.90;99.90;;;;;;5075648;28;20270;-80
2022/09/08 09:32:08;;;;;;;4.00;1.67;;;18.00;99.90;;;;;;5077321;28;20170;-79
2022/09/08 09:34:52;;;;;;;3.07;2.10;;;18.10;99.90;;;;;;5077022;28;20221;-80
2022/09/08 09:37:41;;;;;;;2.50;1.70;;;18.20;99.90;;;;;;5077039;28;20567;-80
2022/09/08 09:40:07;;;;;;;3.50;1.80;;;18.30;99.90;;;;;;5077224;28;20155;-80
2022/09/08 09:42:50;;;;;;;4.40;2.10;;;18.40;99.90;;;;;;5075587;28;20190;-80
2022/09/08 09:45:49;;;;;;;1.87;1.43;;;18.60;99.90;;;;;;5077333;28;20151;-80
2022/09/08 09:48:51;;;;;;;3.67;1.73;;;18.60;99.90;;;;;;5070502;28;20648;-80
2022/09/08 09:51:42;;;;;;;2.33;1.40;;;18.70;99.90;;;;;;5076663;28;20162;-80
2022/09/08 09:54:17;;;;;;;2.37;1.30;;;18.80;99.90;;;;;;5077627;28;20178;-81
2022/09/08 09:57:22;;;;;;;1.67;1.27;;;18.90;99.90;;;;;;5078833;28;20198;-81
2022/09/08 10:00:14;;;;;;;2.70;1.30;;;19.20;99.90;;;;;;5077656;28;20170;-81
2022/09/08 10:02:58;;;;;;;3.60;1.40;;;19.40;99.90;;;;;;5077601;28;20244;-80
2022/09/08 10:06:09;;;;;;;2.23;1.10;;;19.40;99.90;;;;;;5076331;28;20225;-81
2022/09/08 10:08:47;;;;;;;3.13;1.27;;;19.30;99.90;;;;;;5077975;28;20246;-81
2022/09/08 10:11:32;;;;;;;3.07;1.20;;;19.20;99.90;;;;;;5076094;28;20173;-81
2022/09/08 10:14:32;;;;;;;2.57;0.90;;;19.10;99.90;;;;;;5078439;28;20199;-81
2022/09/08 10:17:33;;;;;;;4.70;1.03;;;19.00;99.90;;;;;;5076394;28;20289;-81
2022/09/08 10:20:20;;;;;;;2.63;1.27;;;19.00;99.90;;;;;;5076783;28;20170;-81
2022/09/08 10:23:22;;;;;;;3.37;0.97;;;18.80;99.90;;;;;;5076974;28;20632;-81
2022/09/08 10:26:18;;;;;;;4.73;0.90;;;18.90;99.90;;;;;;5070237;28;20640;-81
2022/09/08 10:28:59;;;;;;;3.77;1.00;;;18.90;99.90;;;;;;5076457;28;20173;-81
2022/09/08 10:32:01;;;;;;;3.03;1.00;;;19.00;99.90;;;;;;5076089;28;20171;-81
2022/09/08 10:34:50;;;;;;;1.77;0.90;;;19.00;99.90;;;;;;5076953;28;20177;-81
2022/09/08 10:37:48;;;;;;;2.63;0.83;;;19.30;99.90;;;;;;5076674;28;20687;-81
2022/09/08 10:40:41;;;;;;;1.50;0.63;;;19.30;99.90;;;;;;5077661;28;20155;-81
2022/09/08 10:43:37;;;;;;;3.20;0.60;;;19.50;99.90;;;;;;5076357;28;20163;-81
2022/09/08 10:46:57;;;;;;;3.33;1.20;;;19.50;99.90;;;;;;5077396;28;20275;-82
2022/09/08 10:49:54;;;;;;;8.87;1.67;;;19.60;99.90;;;;;;5055210;28;20212;-81
2022/09/08 10:52:31;;;;;;;2.13;0.70;;;19.70;1.00;;;;;;5077237;28;20687;-81
2022/09/08 10:55:36;;;;;;;4.60;0.97;;;19.80;99.90;;;;;;5077616;28;20227;-81
2022/09/08 10:58:23;;;;;;;2.63;0.93;;;19.80;1.00;;;;;;5076654;28;20183;-82
2022/09/08 11:01:17;;;;;;;1.07;0.60;;;19.90;99.90;;;;;;5075499;28;20274;-82
2022/09/08 11:04:05;;;;;;;4.60;1.00;;;20.00;1.00;;;;;;5075674;28;20175;-82
2022/09/08 11:07:15;;;;;;;1.57;0.63;;;20.00;1.00;;;;;;5077443;28;20191;-82
2022/09/08 11:10:06;;;;;;;1.97;0.60;;;20.10;1.00;;;;;;5076379;28;20234;-82
2022/09/08 11:13:03;;;;;;;1.97;0.70;;;20.40;99.90;;;;;;5076515;28;20207;-82
2022/09/08 11:16:07;;;;;;;0.83;0.53;;;20.40;1.00;;;;;;5075443;28;20250;-82
2022/09/08 11:19:06;;;;;;;3.07;0.77;;;20.40;99.90;;;;;;5074643;28;20640;-82
2022/09/08 11:21:56;;;;;;;1.83;0.70;;;20.40;99.90;;;;;;5075440;28;20189;-82
2022/09/08 11:24:30;;;;;;;1.67;0.57;;;20.50;1.00;;;;;;5075449;28;20269;-82
2022/09/08 11:27:21;;;;;;;4.17;1.17;;;20.50;30.50;;;;;;5075890;28;20190;-82
2022/09/08 11:30:10;;;;;;;2.33;0.90;;;20.60;99.90;;;;;;5074575;28;20540;-82
2022/09/08 11:32:43;;;;;;;1.80;0.73;;;20.60;1.00;;;;;;5075262;28;20286;-84
2022/09/08 11:35:24;;;;;;;2.80;0.77;;;20.50;99.90;;;;;;5075579;28;20160;-82
2022/09/08 11:38:38;;;;;;;2.50;0.77;;;20.60;99.90;;;;;;5075946;28;20187;-82
2022/09/08 11:41:22;;;;;;;1.13;0.60;;;20.60;40.70;;;;;;5074654;28;20163;-82
2022/09/08 11:44:05;;;;;;;1.60;0.43;;;20.80;99.90;;;;;;5077597;28;20190;-81
2022/09/08 11:46:58;;;;;;;1.70;0.80;;;20.60;99.90;;;;;;5080951;28;20290;-82
2022/09/08 11:49:38;;;;;;;2.73;0.70;;;20.90;99.90;;;;;;5078457;28;20556;-82
2022/09/08 11:52:15;;;;;;;2.67;0.60;;;21.00;1.00;;;;;;5080722;28;20190;-82
2022/09/08 11:55:31;;;;;;;2.10;0.60;;;21.00;37.00;;;;;;5078515;28;20161;-82
2022/09/08 11:58:18;;;;;;;3.40;0.70;;;21.00;99.90;;;;;;5061271;28;20576;-82
2022/09/08 12:00:47;;;;;;;2.77;0.57;;;21.00;99.90;;;;;;5079546;28;20267;-82
2022/09/08 12:03:29;;;;;;;2.63;0.70;;;21.10;99.90;;;;;;5080599;28;20520;-81
2022/09/08 12:06:13;;;;;;;2.93;0.73;;;21.20;1.00;;;;;;5080060;28;20167;-82
2022/09/08 12:09:04;;;;;;;1.80;0.57;;;21.30;1.00;;;;;;5078449;28;20233;-82
2022/09/08 12:12:16;;;;;;;1.60;0.60;;;21.50;99.90;;;;;;5080724;28;20192;-81
2022/09/08 12:15:14;;;;;;;3.53;0.40;;;21.60;1.00;;;;;;5111898;22;20283;-90
2022/09/08 12:18:01;;;;;;;3.73;1.00;;;21.70;1.00;;;;;;5089326;28;20197;-90
2022/09/08 12:21:03;;;;;;;2.43;0.67;;;21.80;1.00;;;;;;5078930;28;20195;-90
2022/09/08 12:23:53;;;;;;;2.30;0.60;;;21.70;99.90;;;;;;5077624;28;20158;-90
2022/09/08 12:26:45;;;;;;;2.03;0.80;;;21.70;1.00;;;;;;5089729;22;20239;-83
2022/09/08 12:29:10;;;;;;;2.43;1.00;;;21.60;1.00;;;;;;5059832;28;20246;-83
2022/09/08 12:32:08;;;;;;;0.87;0.53;;;21.70;1.00;;;;;;5061116;28;20198;-82
2022/09/08 12:35:09;;;;;;;2.70;0.70;;;21.70;99.90;;;;;;5060766;28;20219;-82
2022/09/08 12:37:54;;;;;;;1.77;0.80;;;21.80;99.90;;;;;;5057386;28;20753;-83
2022/09/08 12:40:31;;;;;;;1.97;0.60;;;21.90;1.00;;;;;;5060922;28;20183;-82
2022/09/08 12:43:07;;;;;;;3.30;1.03;;;21.90;99.90;;;;;;5058820;28;20172;-83
2022/09/08 12:45:57;;;;;;;2.37;0.90;;;21.90;80.80;;;;;;5059121;28;20203;-82
2022/09/08 12:48:26;;;;;;;3.73;0.90;;;22.10;99.90;;;;;;5058668;28;20584;-83
2022/09/08 12:51:00;;;;;;;0.73;0.60;;;22.10;1.00;;;;;;5058631;28;20550;-82
2022/09/08 12:54:13;;;;;;;1.77;0.73;;;22.10;99.90;;;;;;5060048;28;20205;-82
2022/09/08 12:57:00;;;;;;;4.33;0.87;;;22.10;99.90;;;;;;5040356;28;20180;-83
2022/09/08 12:59:32;;;;;;;2.03;0.70;;;22.00;99.90;;;;;;5060873;28;20237;-83
2022/09/08 13:02:28;;;;;;;0.43;0.43;;;21.80;1.00;;;;;;5058713;28;20329;-82
2022/09/08 13:05:32;;;;;;;2.07;0.67;;;21.90;97.10;;;;;;5059211;28;20737;-81
2022/09/08 13:08:31;;;;;;;1.03;0.50;;;22.00;99.90;;;;;;5049280;28;20648;-81
2022/09/08 13:11:31;;;;;;;0.83;0.63;;;22.10;1.00;;;;;;5060642;28;20162;-83
2022/09/08 13:14:04;;;;;;;2.50;0.70;;;22.10;99.90;;;;;;5058752;28;20204;-83
2022/09/08 13:16:49;;;;;;;0.90;0.70;;;22.10;99.90;;;;;;5059748;28;20156;-83
2022/09/08 13:19:27;;;;;;;2.53;0.77;;;22.30;1.00;;;;;;5058917;28;20182;-82
2022/09/08 13:22:30;;;;;;;2.43;0.60;;;22.30;99.90;;;;;;5058679;28;20611;-83
2022/09/08 13:24:58;;;;;;;1.57;0.53;;;22.30;1.00;;;;;;5058241;28;20195;-82
2022/09/08 13:28:04;;;;;;;1.27;0.50;;;22.40;1.00;;;;;;5059052;28;20286;-82
2022/09/08 13:30:57;;;;;;;3.77;0.90;;;22.30;99.90;;;;;;5059968;28;20172;-82
2022/09/08 13:33:43;;;;;;;4.07;0.70;;;22.30;1.00;;;;;;5058151;28;20199;-83
2022/09/08 13:36:31;;;;;;;1.97;0.97;;;22.10;1.00;;;;;;5058651;28;20185;-83
2022/09/08 13:39:05;;;;;;;2.80;0.73;;;22.10;1.00;;;;;;5060246;28;20163;-83
2022/09/08 13:42:03;;;;;;;2.17;0.60;;;22.00;1.00;;;;;;5060553;28;20162;-83
2022/09/08 13:44:53;;;;;;;1.80;0.47;;;22.00;1.00;;;;;;5062053;28;20245;-82